UAL1702 KSAN-KSFO
Flight info
| Callsign | UAL1702 |
|---|---|
| Flight time | 1h 4m |
| Altitude | 34000 |
| Route | PADRZ2 IKAYE DCT RIZIN DCT SPLNT DCT STOKD DCT SERFR SERFR4 |
| Aircraft | B739/M-SDE2E3FGHIRWXY/LB1 |
Departure
| Time | 2026-04-26 02:45 |
|---|---|
| Airport | San Diego International Airport (KSAN) |
Arrival
| Time | 2026-04-26 03:50 |
|---|---|
| Airport | San Francisco International Airport (KSFO) |
| Time | Latitude | Longitude | Altitude | Speed | Heading |
|---|---|---|---|---|---|
| 2026-04-26 01:49 | 32.73390 | -117.20464 | 27 ft | 0 kts | 87° |
| 2026-04-26 02:11 | 32.73390 | -117.20465 | 23 ft | 0 kts | 87° |
| 2026-04-26 02:28 | 32.73390 | -117.20473 | 25 ft | 4 kts | 87° |
| 2026-04-26 02:28 | 32.73389 | -117.20505 | 27 ft | 4 kts | 87° |
| 2026-04-26 02:28 | 32.73388 | -117.20534 | 26 ft | 4 kts | 75° |
| 2026-04-26 02:29 | 32.73375 | -117.20555 | 27 ft | 4 kts | 14° |
| 2026-04-26 02:29 | 32.73353 | -117.20558 | 25 ft | 1 kts | 358° |
| 2026-04-26 02:29 | 32.73349 | -117.20557 | 24 ft | 0 kts | 358° |
| 2026-04-26 02:34 | 32.73361 | -117.20558 | 26 ft | 4 kts | 357° |
| 2026-04-26 02:34 | 32.73406 | -117.20561 | 25 ft | 9 kts | 356° |
| 2026-04-26 02:34 | 32.73481 | -117.20554 | 19 ft | 9 kts | 8° |
| 2026-04-26 02:35 | 32.73508 | -117.20531 | 18 ft | 6 kts | 56° |
| 2026-04-26 02:35 | 32.73540 | -117.20476 | 19 ft | 10 kts | 52° |
| 2026-04-26 02:35 | 32.73579 | -117.20415 | 21 ft | 2 kts | 60° |
| 2026-04-26 02:35 | 32.73584 | -117.20393 | 19 ft | 3 kts | 77° |
| 2026-04-26 02:36 | 32.73586 | -117.20364 | 20 ft | 4 kts | 91° |
| 2026-04-26 02:36 | 32.73580 | -117.20322 | 21 ft | 9 kts | 103° |
| 2026-04-26 02:36 | 32.73560 | -117.20233 | 27 ft | 14 kts | 105° |
| 2026-04-26 02:36 | 32.73531 | -117.20106 | 26 ft | 18 kts | 104° |
| 2026-04-26 02:37 | 32.73498 | -117.19968 | 26 ft | 13 kts | 105° |
| 2026-04-26 02:37 | 32.73467 | -117.19842 | 28 ft | 19 kts | 107° |
| 2026-04-26 02:37 | 32.73433 | -117.19704 | 25 ft | 14 kts | 107° |
| 2026-04-26 02:37 | 32.73399 | -117.19591 | 29 ft | 8 kts | 100° |
| 2026-04-26 02:38 | 32.73387 | -117.19521 | 30 ft | 0 kts | 110° |
| 2026-04-26 02:38 | 32.73378 | -117.19484 | 28 ft | 9 kts | 104° |
| 2026-04-26 02:38 | 32.73365 | -117.19418 | 25 ft | 1 kts | 104° |
| 2026-04-26 02:38 | 32.73355 | -117.19381 | 28 ft | 9 kts | 108° |
| 2026-04-26 02:39 | 32.73331 | -117.19282 | 25 ft | 16 kts | 106° |
| 2026-04-26 02:39 | 32.73318 | -117.19231 | 22 ft | 2 kts | 106° |
| 2026-04-26 02:39 | 32.73299 | -117.19156 | 27 ft | 16 kts | 105° |
| 2026-04-26 02:39 | 32.73259 | -117.18987 | 29 ft | 24 kts | 108° |
| 2026-04-26 02:40 | 32.73211 | -117.18779 | 30 ft | 22 kts | 106° |
| 2026-04-26 02:40 | 32.73175 | -117.18639 | 28 ft | 21 kts | 106° |
| 2026-04-26 02:40 | 32.73128 | -117.18459 | 25 ft | 24 kts | 103° |
| 2026-04-26 02:40 | 32.73078 | -117.18241 | 26 ft | 25 kts | 106° |
| 2026-04-26 02:41 | 32.73044 | -117.18104 | 25 ft | 21 kts | 105° |
| 2026-04-26 02:41 | 32.73003 | -117.17930 | 23 ft | 17 kts | 107° |
| 2026-04-26 02:41 | 32.72976 | -117.17823 | 21 ft | 8 kts | 107° |
| 2026-04-26 02:41 | 32.72972 | -117.17809 | 21 ft | 0 kts | 107° |
| 2026-04-26 02:43 | 32.72966 | -117.17787 | 21 ft | 6 kts | 108° |
| 2026-04-26 02:43 | 32.72952 | -117.17735 | 23 ft | 2 kts | 105° |
| 2026-04-26 02:44 | 32.72951 | -117.17733 | 23 ft | 2 kts | 102° |
| 2026-04-26 02:44 | 32.72954 | -117.17688 | 23 ft | 8 kts | 78° |
| 2026-04-26 02:44 | 32.72990 | -117.17606 | 28 ft | 10 kts | 30° |
| 2026-04-26 02:44 | 32.73042 | -117.17661 | 25 ft | 17 kts | 286° |
| 2026-04-26 02:45 | 32.73101 | -117.17911 | 22 ft | 60 kts | 285° |
| 2026-04-26 02:45 | 32.73283 | -117.18671 | 29 ft | 129 kts | 285° |
| 2026-04-26 02:45 | 32.73594 | -117.19876 | 224 ft | 165 kts | 288° |
| 2026-04-26 02:45 | 32.73991 | -117.21178 | 981 ft | 173 kts | 294° |
| 2026-04-26 02:46 | 32.74626 | -117.22387 | 1857 ft | 164 kts | 299° |
| 2026-04-26 02:46 | 32.75228 | -117.23476 | 2711 ft | 157 kts | 299° |
| 2026-04-26 02:46 | 32.75883 | -117.24658 | 2936 ft | 186 kts | 300° |
| 2026-04-26 02:46 | 32.76646 | -117.26020 | 3191 ft | 211 kts | 301° |
| 2026-04-26 02:47 | 32.77506 | -117.27546 | 3517 ft | 230 kts | 301° |
| 2026-04-26 02:47 | 32.78422 | -117.29167 | 3829 ft | 251 kts | 301° |
| 2026-04-26 02:47 | 32.79409 | -117.30909 | 4570 ft | 256 kts | 302° |
| 2026-04-26 02:47 | 32.80438 | -117.32641 | 5468 ft | 257 kts | 305° |
| 2026-04-26 02:48 | 32.81533 | -117.34344 | 6311 ft | 260 kts | 306° |
| 2026-04-26 02:48 | 32.82654 | -117.36060 | 7082 ft | 265 kts | 305° |
| 2026-04-26 02:48 | 32.83786 | -117.37797 | 7883 ft | 267 kts | 304° |
| 2026-04-26 02:48 | 32.84921 | -117.39544 | 8721 ft | 268 kts | 304° |
| 2026-04-26 02:49 | 32.86064 | -117.41309 | 9560 ft | 270 kts | 303° |
| 2026-04-26 02:49 | 32.87215 | -117.43092 | 10289 ft | 275 kts | 303° |
| 2026-04-26 02:49 | 32.88422 | -117.44971 | 10519 ft | 298 kts | 303° |
| 2026-04-26 02:49 | 32.89708 | -117.46975 | 10697 ft | 320 kts | 303° |
| 2026-04-26 02:50 | 32.91104 | -117.49145 | 11000 ft | 337 kts | 304° |
| 2026-04-26 02:50 | 32.92543 | -117.51379 | 11566 ft | 343 kts | 303° |
| 2026-04-26 02:50 | 32.94002 | -117.53645 | 12232 ft | 347 kts | 303° |
| 2026-04-26 02:50 | 32.95474 | -117.55937 | 12941 ft | 349 kts | 303° |
| 2026-04-26 02:51 | 32.96955 | -117.58246 | 13618 ft | 353 kts | 303° |
| 2026-04-26 02:51 | 32.98451 | -117.60581 | 14224 ft | 357 kts | 302° |
| 2026-04-26 02:51 | 32.99961 | -117.62938 | 14846 ft | 359 kts | 302° |
| 2026-04-26 02:51 | 33.01485 | -117.65319 | 15397 ft | 365 kts | 302° |
| 2026-04-26 02:52 | 33.03018 | -117.67718 | 15868 ft | 371 kts | 302° |
| 2026-04-26 02:52 | 33.04581 | -117.70162 | 16465 ft | 374 kts | 302° |
| 2026-04-26 02:52 | 33.06179 | -117.72648 | 17052 ft | 378 kts | 303° |
| 2026-04-26 02:52 | 33.08050 | -117.74913 | 17573 ft | 390 kts | 314° |
| 2026-04-26 02:53 | 33.10159 | -117.76979 | 18111 ft | 395 kts | 315° |
| 2026-04-26 02:53 | 33.12306 | -117.79056 | 18592 ft | 399 kts | 314° |
| 2026-04-26 02:53 | 33.14446 | -117.81168 | 19127 ft | 399 kts | 313° |
| 2026-04-26 02:53 | 33.16565 | -117.83306 | 19684 ft | 400 kts | 312° |
| 2026-04-26 02:54 | 33.18689 | -117.85470 | 20206 ft | 402 kts | 311° |
| 2026-04-26 02:54 | 33.20744 | -117.87661 | 20675 ft | 403 kts | 308° |
| 2026-04-26 02:54 | 33.22758 | -117.90009 | 21139 ft | 405 kts | 307° |
| 2026-04-26 02:54 | 33.24735 | -117.92397 | 21695 ft | 404 kts | 306° |
| 2026-04-26 02:55 | 33.26705 | -117.94797 | 22242 ft | 405 kts | 305° |
| 2026-04-26 02:55 | 33.28687 | -117.97209 | 22741 ft | 407 kts | 305° |
| 2026-04-26 02:55 | 33.30681 | -117.99623 | 23224 ft | 409 kts | 305° |
| 2026-04-26 02:55 | 33.32689 | -118.02044 | 23684 ft | 411 kts | 304° |
| 2026-04-26 02:56 | 33.34711 | -118.04473 | 24075 ft | 413 kts | 304° |
| 2026-04-26 02:56 | 33.36748 | -118.06916 | 24471 ft | 416 kts | 305° |
| 2026-04-26 02:56 | 33.38767 | -118.09336 | 24904 ft | 417 kts | 305° |
| 2026-04-26 02:56 | 33.40824 | -118.11802 | 25252 ft | 420 kts | 305° |
| 2026-04-26 02:57 | 33.42898 | -118.14288 | 25633 ft | 422 kts | 305° |
| 2026-04-26 02:57 | 33.44974 | -118.16778 | 26011 ft | 424 kts | 305° |
| 2026-04-26 02:57 | 33.47066 | -118.19289 | 26388 ft | 426 kts | 305° |
| 2026-04-26 02:57 | 33.49160 | -118.21805 | 26759 ft | 428 kts | 305° |
| 2026-04-26 02:58 | 33.51266 | -118.24337 | 27135 ft | 429 kts | 305° |
| 2026-04-26 02:58 | 33.53377 | -118.26877 | 27486 ft | 431 kts | 305° |
| 2026-04-26 02:58 | 33.55496 | -118.29430 | 27820 ft | 433 kts | 305° |
| 2026-04-26 02:58 | 33.57629 | -118.32003 | 28096 ft | 438 kts | 306° |
| 2026-04-26 02:59 | 33.59783 | -118.34604 | 28373 ft | 441 kts | 306° |
| 2026-04-26 02:59 | 33.61920 | -118.37182 | 28760 ft | 441 kts | 306° |
| 2026-04-26 02:59 | 33.64081 | -118.39790 | 29164 ft | 441 kts | 306° |
| 2026-04-26 02:59 | 33.66242 | -118.42398 | 29611 ft | 440 kts | 306° |
| 2026-04-26 03:00 | 33.68395 | -118.44999 | 30095 ft | 438 kts | 305° |
| 2026-04-26 03:00 | 33.70535 | -118.47585 | 30498 ft | 436 kts | 305° |
| 2026-04-26 03:00 | 33.72669 | -118.50171 | 30807 ft | 436 kts | 305° |
| 2026-04-26 03:00 | 33.74805 | -118.52764 | 31078 ft | 438 kts | 305° |
| 2026-04-26 03:01 | 33.76955 | -118.55378 | 31307 ft | 440 kts | 305° |
| 2026-04-26 03:01 | 33.79106 | -118.57991 | 31669 ft | 439 kts | 305° |
| 2026-04-26 03:01 | 33.81247 | -118.60590 | 32079 ft | 436 kts | 305° |
| 2026-04-26 03:01 | 33.83351 | -118.63146 | 32435 ft | 435 kts | 305° |
| 2026-04-26 03:02 | 33.85478 | -118.65735 | 32720 ft | 435 kts | 305° |
| 2026-04-26 03:02 | 33.87605 | -118.68328 | 33027 ft | 435 kts | 306° |
| 2026-04-26 03:02 | 33.89731 | -118.70920 | 33364 ft | 434 kts | 306° |
| 2026-04-26 03:02 | 33.91847 | -118.73501 | 33697 ft | 433 kts | 306° |
| 2026-04-26 03:03 | 33.93973 | -118.76099 | 33842 ft | 437 kts | 306° |
| 2026-04-26 03:03 | 33.96108 | -118.78711 | 33940 ft | 438 kts | 306° |
| 2026-04-26 03:03 | 34.00384 | -118.83940 | 33952 ft | 437 kts | 306° |
| 2026-04-26 03:04 | 34.04637 | -118.89147 | 33953 ft | 435 kts | 306° |
| 2026-04-26 03:04 | 34.08879 | -118.94353 | 33975 ft | 435 kts | 306° |
| 2026-04-26 03:05 | 34.12362 | -118.98708 | 33983 ft | 434 kts | 307° |
| 2026-04-26 03:05 | 34.17352 | -119.04724 | 33970 ft | 436 kts | 305° |
| 2026-04-26 03:06 | 34.19043 | -119.07660 | 33962 ft | 419 kts | 289° |
| 2026-04-26 03:06 | 34.19857 | -119.09768 | 33954 ft | 418 kts | 288° |
| 2026-04-26 03:06 | 34.22368 | -119.16145 | 33946 ft | 424 kts | 291° |
| 2026-04-26 03:07 | 34.25290 | -119.22378 | 33970 ft | 429 kts | 294° |
| 2026-04-26 03:07 | 34.28429 | -119.28540 | 33964 ft | 433 kts | 296° |
| 2026-04-26 03:08 | 34.31621 | -119.34731 | 33949 ft | 434 kts | 296° |
| 2026-04-26 03:08 | 34.34807 | -119.40949 | 33944 ft | 435 kts | 296° |
| 2026-04-26 03:09 | 34.37971 | -119.47151 | 33946 ft | 436 kts | 295° |
| 2026-04-26 03:09 | 34.41230 | -119.53339 | 33940 ft | 439 kts | 301° |
| 2026-04-26 03:10 | 34.45442 | -119.58790 | 33931 ft | 445 kts | 309° |
| 2026-04-26 03:10 | 34.49818 | -119.64062 | 33927 ft | 443 kts | 309° |
| 2026-04-26 03:11 | 34.54155 | -119.69337 | 33930 ft | 441 kts | 308° |
| 2026-04-26 03:11 | 34.58459 | -119.74628 | 33926 ft | 440 kts | 308° |
| 2026-04-26 03:12 | 34.62736 | -119.79909 | 33934 ft | 438 kts | 308° |
| 2026-04-26 03:12 | 34.66973 | -119.85148 | 33955 ft | 437 kts | 308° |
| 2026-04-26 03:13 | 34.71227 | -119.90416 | 33952 ft | 437 kts | 308° |
| 2026-04-26 03:13 | 34.75484 | -119.95695 | 33962 ft | 437 kts | 309° |
| 2026-04-26 03:14 | 34.79733 | -120.00972 | 33953 ft | 436 kts | 309° |
| 2026-04-26 03:14 | 34.83982 | -120.06257 | 33962 ft | 437 kts | 309° |
| 2026-04-26 03:15 | 34.88211 | -120.11528 | 33964 ft | 439 kts | 309° |
| 2026-04-26 03:15 | 34.92489 | -120.16861 | 33959 ft | 441 kts | 309° |
| 2026-04-26 03:16 | 34.96774 | -120.22220 | 33972 ft | 442 kts | 309° |
| 2026-04-26 03:16 | 35.01062 | -120.27589 | 33964 ft | 442 kts | 309° |
| 2026-04-26 03:17 | 35.05326 | -120.32935 | 33969 ft | 442 kts | 309° |
| 2026-04-26 03:17 | 35.09637 | -120.38302 | 33972 ft | 443 kts | 311° |
| 2026-04-26 03:18 | 35.14165 | -120.43429 | 33976 ft | 444 kts | 313° |
| 2026-04-26 03:18 | 35.18740 | -120.48477 | 33970 ft | 442 kts | 313° |
| 2026-04-26 03:19 | 35.23245 | -120.53499 | 33952 ft | 440 kts | 313° |
| 2026-04-26 03:19 | 35.27759 | -120.58572 | 33953 ft | 441 kts | 313° |
| 2026-04-26 03:20 | 35.32274 | -120.63664 | 33951 ft | 442 kts | 313° |
| 2026-04-26 03:20 | 35.36806 | -120.68784 | 33955 ft | 443 kts | 313° |
| 2026-04-26 03:21 | 35.41319 | -120.73887 | 33954 ft | 445 kts | 313° |
| 2026-04-26 03:21 | 35.45873 | -120.79045 | 33962 ft | 446 kts | 313° |
| 2026-04-26 03:22 | 35.50552 | -120.84075 | 33968 ft | 450 kts | 318° |
| 2026-04-26 03:22 | 35.55569 | -120.88694 | 33962 ft | 452 kts | 320° |
| 2026-04-26 03:23 | 35.60635 | -120.93287 | 33958 ft | 453 kts | 320° |
| 2026-04-26 03:23 | 35.65646 | -120.97905 | 33963 ft | 453 kts | 320° |
| 2026-04-26 03:24 | 35.70667 | -121.02581 | 33960 ft | 453 kts | 319° |
| 2026-04-26 03:24 | 35.75685 | -121.07270 | 33956 ft | 453 kts | 320° |
| 2026-04-26 03:25 | 35.80709 | -121.11971 | 33948 ft | 453 kts | 320° |
| 2026-04-26 03:25 | 35.85615 | -121.16563 | 33368 ft | 440 kts | 320° |
| 2026-04-26 03:26 | 35.88012 | -121.18810 | 33111 ft | 429 kts | 320° |
| 2026-04-26 03:26 | 35.90380 | -121.21032 | 32515 ft | 427 kts | 320° |
| 2026-04-26 03:26 | 35.92749 | -121.23260 | 31752 ft | 429 kts | 321° |
| 2026-04-26 03:26 | 35.95131 | -121.25503 | 30980 ft | 432 kts | 322° |
| 2026-04-26 03:27 | 35.97515 | -121.27747 | 30344 ft | 431 kts | 322° |
| 2026-04-26 03:27 | 35.99900 | -121.29992 | 29565 ft | 431 kts | 323° |
| 2026-04-26 03:27 | 36.02261 | -121.32215 | 28638 ft | 434 kts | 323° |
| 2026-04-26 03:27 | 36.04661 | -121.34477 | 27724 ft | 435 kts | 323° |
| 2026-04-26 03:28 | 36.07075 | -121.36741 | 27078 ft | 432 kts | 324° |
| 2026-04-26 03:28 | 36.09529 | -121.38813 | 26602 ft | 424 kts | 328° |
| 2026-04-26 03:28 | 36.12009 | -121.40737 | 26116 ft | 418 kts | 329° |
| 2026-04-26 03:28 | 36.14474 | -121.42597 | 25636 ft | 412 kts | 329° |
| 2026-04-26 03:29 | 36.16900 | -121.44431 | 25178 ft | 407 kts | 329° |
| 2026-04-26 03:29 | 36.19297 | -121.46259 | 24711 ft | 403 kts | 328° |
| 2026-04-26 03:29 | 36.21669 | -121.48086 | 24261 ft | 399 kts | 328° |
| 2026-04-26 03:29 | 36.23977 | -121.49877 | 23824 ft | 396 kts | 328° |
| 2026-04-26 03:30 | 36.26301 | -121.51690 | 23354 ft | 393 kts | 328° |
| 2026-04-26 03:30 | 36.28600 | -121.53486 | 22842 ft | 389 kts | 328° |
| 2026-04-26 03:30 | 36.30883 | -121.55273 | 22323 ft | 386 kts | 327° |
| 2026-04-26 03:30 | 36.33142 | -121.57042 | 21827 ft | 383 kts | 327° |
| 2026-04-26 03:31 | 36.35385 | -121.58800 | 21335 ft | 380 kts | 327° |
| 2026-04-26 03:31 | 36.37608 | -121.60544 | 20860 ft | 376 kts | 326° |
| 2026-04-26 03:31 | 36.39779 | -121.62248 | 20437 ft | 372 kts | 327° |
| 2026-04-26 03:31 | 36.41947 | -121.63951 | 20072 ft | 365 kts | 326° |
| 2026-04-26 03:32 | 36.44062 | -121.65612 | 19961 ft | 352 kts | 326° |
| 2026-04-26 03:32 | 36.46109 | -121.67221 | 19949 ft | 347 kts | 327° |
| 2026-04-26 03:32 | 36.48148 | -121.68825 | 19959 ft | 347 kts | 326° |
| 2026-04-26 03:32 | 36.50196 | -121.70437 | 19910 ft | 351 kts | 327° |
| 2026-04-26 03:33 | 36.52267 | -121.72072 | 19641 ft | 353 kts | 326° |
| 2026-04-26 03:33 | 36.54329 | -121.73701 | 19394 ft | 350 kts | 326° |
| 2026-04-26 03:33 | 36.56371 | -121.75316 | 19149 ft | 346 kts | 326° |
| 2026-04-26 03:33 | 36.58358 | -121.76887 | 18910 ft | 342 kts | 326° |
| 2026-04-26 03:34 | 36.60356 | -121.78470 | 18677 ft | 339 kts | 327° |
| 2026-04-26 03:34 | 36.62343 | -121.80045 | 18432 ft | 337 kts | 328° |
| 2026-04-26 03:34 | 36.64314 | -121.81603 | 18206 ft | 335 kts | 327° |
| 2026-04-26 03:34 | 36.66277 | -121.83162 | 17931 ft | 333 kts | 327° |
| 2026-04-26 03:35 | 36.68227 | -121.84711 | 17663 ft | 332 kts | 327° |
| 2026-04-26 03:35 | 36.70170 | -121.86255 | 17400 ft | 331 kts | 327° |
| 2026-04-26 03:35 | 36.72111 | -121.87797 | 17121 ft | 331 kts | 327° |
| 2026-04-26 03:35 | 36.74043 | -121.89274 | 16855 ft | 330 kts | 334° |
| 2026-04-26 03:36 | 36.76232 | -121.90120 | 16606 ft | 329 kts | 347° |
| 2026-04-26 03:36 | 36.78475 | -121.90709 | 16279 ft | 330 kts | 348° |
| 2026-04-26 03:36 | 36.80760 | -121.91309 | 16014 ft | 342 kts | 348° |
| 2026-04-26 03:36 | 36.83094 | -121.91935 | 15645 ft | 343 kts | 348° |
| 2026-04-26 03:37 | 36.85421 | -121.92571 | 15228 ft | 341 kts | 348° |
| 2026-04-26 03:37 | 36.87727 | -121.93210 | 14816 ft | 338 kts | 348° |
| 2026-04-26 03:37 | 36.90015 | -121.93848 | 14403 ft | 336 kts | 348° |
| 2026-04-26 03:37 | 36.92257 | -121.94475 | 13992 ft | 334 kts | 348° |
| 2026-04-26 03:38 | 36.94518 | -121.95107 | 13544 ft | 332 kts | 348° |
| 2026-04-26 03:38 | 36.96748 | -121.95824 | 13074 ft | 331 kts | 344° |
| 2026-04-26 03:38 | 36.98941 | -121.96669 | 12643 ft | 329 kts | 342° |
| 2026-04-26 03:38 | 37.01113 | -121.97542 | 12207 ft | 327 kts | 342° |
| 2026-04-26 03:39 | 37.03270 | -121.98410 | 11786 ft | 325 kts | 342° |
| 2026-04-26 03:39 | 37.05417 | -121.99267 | 11368 ft | 323 kts | 342° |
| 2026-04-26 03:39 | 37.07556 | -122.00114 | 10963 ft | 322 kts | 342° |
| 2026-04-26 03:39 | 37.09661 | -122.00943 | 10561 ft | 321 kts | 342° |
| 2026-04-26 03:40 | 37.11770 | -122.01770 | 10378 ft | 312 kts | 342° |
| 2026-04-26 03:40 | 37.13820 | -122.02573 | 10207 ft | 304 kts | 342° |
| 2026-04-26 03:40 | 37.15814 | -122.03354 | 10043 ft | 296 kts | 342° |
| 2026-04-26 03:40 | 37.17762 | -122.04117 | 9738 ft | 294 kts | 342° |
| 2026-04-26 03:41 | 37.19715 | -122.04883 | 9374 ft | 293 kts | 342° |
| 2026-04-26 03:41 | 37.21655 | -122.05643 | 9016 ft | 292 kts | 342° |
| 2026-04-26 03:41 | 37.23592 | -122.06399 | 8674 ft | 290 kts | 342° |
| 2026-04-26 03:41 | 37.25491 | -122.07145 | 8355 ft | 289 kts | 341° |
| 2026-04-26 03:42 | 37.27431 | -122.07902 | 8024 ft | 287 kts | 341° |
| 2026-04-26 03:42 | 37.29312 | -122.08646 | 7630 ft | 288 kts | 341° |
| 2026-04-26 03:42 | 37.31223 | -122.09404 | 7264 ft | 288 kts | 341° |
| 2026-04-26 03:42 | 37.33134 | -122.10158 | 6884 ft | 289 kts | 342° |
| 2026-04-26 03:43 | 37.35047 | -122.10911 | 6497 ft | 287 kts | 341° |
| 2026-04-26 03:43 | 37.36932 | -122.11653 | 6118 ft | 281 kts | 342° |
| 2026-04-26 03:43 | 37.38782 | -122.12351 | 5763 ft | 275 kts | 343° |
| 2026-04-26 03:43 | 37.39671 | -122.12655 | 5603 ft | 272 kts | 344° |
| 2026-04-26 03:44 | 37.41375 | -122.13225 | 5285 ft | 267 kts | 344° |
| 2026-04-26 03:44 | 37.43131 | -122.13818 | 4973 ft | 262 kts | 343° |
| 2026-04-26 03:44 | 37.44875 | -122.14413 | 4655 ft | 257 kts | 343° |
| 2026-04-26 03:44 | 37.46590 | -122.14981 | 4343 ft | 253 kts | 343° |
| 2026-04-26 03:45 | 37.48287 | -122.15537 | 4051 ft | 251 kts | 343° |
| 2026-04-26 03:45 | 37.49966 | -122.16087 | 3735 ft | 248 kts | 342° |
| 2026-04-26 03:45 | 37.51618 | -122.16630 | 3464 ft | 243 kts | 342° |
| 2026-04-26 03:45 | 37.52716 | -122.17005 | 3252 ft | 240 kts | 338° |
| 2026-04-26 03:46 | 37.54027 | -122.18158 | 2951 ft | 226 kts | 300° |
| 2026-04-26 03:46 | 37.54712 | -122.19829 | 2814 ft | 210 kts | 295° |
| 2026-04-26 03:46 | 37.55378 | -122.21407 | 2566 ft | 199 kts | 296° |
| 2026-04-26 03:47 | 37.56637 | -122.24396 | 2091 ft | 193 kts | 296° |
| 2026-04-26 03:47 | 37.57252 | -122.25874 | 1820 ft | 188 kts | 296° |
| 2026-04-26 03:47 | 37.57841 | -122.27285 | 1545 ft | 174 kts | 295° |
| 2026-04-26 03:47 | 37.58369 | -122.28552 | 1356 ft | 153 kts | 296° |
| 2026-04-26 03:48 | 37.58852 | -122.29713 | 1128 ft | 151 kts | 295° |
| 2026-04-26 03:48 | 37.59345 | -122.30899 | 923 ft | 151 kts | 294° |
| 2026-04-26 03:48 | 37.59820 | -122.32032 | 767 ft | 148 kts | 297° |
| 2026-04-26 03:48 | 37.60301 | -122.33215 | 507 ft | 151 kts | 295° |
| 2026-04-26 03:49 | 37.60787 | -122.34383 | 292 ft | 150 kts | 295° |
| 2026-04-26 03:49 | 37.61271 | -122.35524 | 115 ft | 147 kts | 296° |
| 2026-04-26 03:49 | 37.61741 | -122.36652 | 19 ft | 137 kts | 296° |
| 2026-04-26 03:49 | 37.62140 | -122.37600 | 18 ft | 105 kts | 298° |
| 2026-04-26 03:50 | 37.62428 | -122.38273 | 20 ft | 70 kts | 298° |
| 2026-04-26 03:50 | 37.62499 | -122.38691 | 19 ft | 19 kts | 267° |
| 2026-04-26 03:50 | 37.62497 | -122.38753 | 16 ft | 0 kts | 267° |
| 2026-04-26 03:51 | 37.62497 | -122.38756 | 16 ft | 1 kts | 267° |
| 2026-04-26 03:52 | 37.62496 | -122.38783 | 17 ft | 5 kts | 267° |
| 2026-04-26 03:52 | 37.62480 | -122.38842 | 19 ft | 9 kts | 240° |
| 2026-04-26 03:52 | 37.62421 | -122.38902 | 18 ft | 14 kts | 206° |
| 2026-04-26 03:52 | 37.62325 | -122.38960 | 15 ft | 14 kts | 210° |
| 2026-04-26 03:53 | 37.62258 | -122.38970 | 14 ft | 9 kts | 145° |
| 2026-04-26 03:53 | 37.62185 | -122.38940 | 13 ft | 12 kts | 178° |
| 2026-04-26 03:53 | 37.62159 | -122.38937 | 14 ft | 0 kts | 175° |